Time;durP1;ratioP1;P1;durP2;ratioP2;P2;SDS_P1;SDS_P2;PMS_P1;PMS_P2;Temp;Humidity;BMP_temperature;BMP_pressure;BME280_temperature;BME280_humidity;BME280_pressure;Samples;Min_cycle;Max_cycle;Signal;HPM_P1;HPM_P2
2023/08/29 00:01:02;;;;;;;0.10;0.10;;;;;;;15.41;100.00;98549.31;5075810;28;20270;-55
2023/08/29 00:03:49;;;;;;;0.10;0.10;;;;;;;15.46;100.00;98544.38;5075267;28;20203;-54
2023/08/29 00:06:37;;;;;;;0.00;0.00;;;;;;;15.40;100.00;98541.44;5075317;28;20196;-55
2023/08/29 00:09:24;;;;;;;0.10;0.10;;;;;;;15.48;100.00;98519.38;5075397;28;20238;-54
2023/08/29 00:12:11;;;;;;;0.10;0.10;;;;;;;15.60;100.00;98526.22;5075297;28;20199;-55
2023/08/29 00:14:58;;;;;;;0.10;0.10;;;;;;;15.59;100.00;98525.38;5075122;28;20219;-54
2023/08/29 00:17:45;;;;;;;0.10;0.10;;;;;;;15.59;100.00;98522.72;5074235;28;20223;-54
2023/08/29 00:20:32;;;;;;;0.10;0.10;;;;;;;15.57;100.00;98522.03;5074779;28;20609;-54
2023/08/29 00:23:20;;;;;;;0.10;0.10;;;;;;;15.34;100.00;98524.16;5075121;28;20556;-54
2023/08/29 00:26:07;;;;;;;0.10;0.10;;;;;;;15.46;100.00;98525.72;5074954;28;20195;-54
2023/08/29 00:28:54;;;;;;;0.10;0.10;;;;;;;15.28;100.00;98526.59;5073635;28;20192;-55
2023/08/29 00:31:41;;;;;;;0.10;0.10;;;;;;;15.20;100.00;98518.47;5073985;28;20203;-54
2023/08/29 00:34:28;;;;;;;0.10;0.10;;;;;;;15.17;100.00;98525.78;5074884;28;20211;-55
2023/08/29 00:37:15;;;;;;;0.10;0.10;;;;;;;15.16;100.00;98536.59;5074655;28;20223;-55
2023/08/29 00:40:04;;;;;;;0.10;0.10;;;;;;;15.19;100.00;98541.63;5074778;28;20230;-55
2023/08/29 00:42:51;;;;;;;0.10;0.10;;;;;;;15.27;100.00;98543.59;5072374;28;20195;-55
2023/08/29 00:45:38;;;;;;;0.10;0.10;;;;;;;15.21;100.00;98545.00;5073632;28;20191;-55
2023/08/29 00:48:26;;;;;;;0.10;0.10;;;;;;;15.32;100.00;98536.81;5073634;28;20687;-55
2023/08/29 00:51:13;;;;;;;0.10;0.10;;;;;;;15.41;100.00;98545.78;5073407;28;20727;-55
2023/08/29 00:54:01;;;;;;;0.10;0.10;;;;;;;15.44;100.00;98558.84;5074406;28;20203;-54
2023/08/29 00:56:49;;;;;;;0.10;0.10;;;;;;;15.58;100.00;98561.06;5074170;28;20736;-54
2023/08/29 00:59:36;;;;;;;0.10;0.10;;;;;;;15.87;100.00;98577.03;5073109;28;20203;-55
2023/08/29 01:02:23;;;;;;;0.10;0.10;;;;;;;15.44;100.00;98577.53;5074327;28;20203;-55
2023/08/29 01:05:10;;;;;;;0.10;0.10;;;;;;;15.65;100.00;98583.56;5073203;28;20230;-54
2023/08/29 01:07:59;;;;;;;0.10;0.10;;;;;;;15.89;100.00;98584.91;5073228;28;20191;-54
2023/08/29 01:10:59;;;;;;;0.10;0.10;;;;;;;15.89;100.00;98582.22;5074248;28;20196;-55
2023/08/29 01:13:55;;;;;;;0.10;0.10;;;;;;;15.87;100.00;98574.38;5071632;28;20203;-54
2023/08/29 01:16:48;;;;;;;0.10;0.10;;;;;;;15.58;100.00;98568.25;5073943;28;20196;-55
2023/08/29 01:19:40;;;;;;;0.00;0.00;;;;;;;15.88;100.00;98568.03;5072932;28;20192;-55
2023/08/29 01:22:31;;;;;;;0.10;0.10;;;;;;;15.76;100.00;98579.91;5073030;28;20242;-55
2023/08/29 01:25:26;;;;;;;0.10;0.10;;;;;;;15.78;100.00;98585.09;5072834;28;20223;-55
2023/08/29 01:28:15;;;;;;;0.10;0.10;;;;;;;15.61;100.00;98590.16;5071465;28;20192;-55
2023/08/29 01:31:04;;;;;;;0.10;0.10;;;;;;;15.57;100.00;98590.59;5072409;28;20272;-55
2023/08/29 01:33:51;;;;;;;0.10;0.10;;;;;;;15.61;100.00;98592.84;5073684;28;20199;-55
2023/08/29 01:36:40;;;;;;;0.10;0.10;;;;;;;15.56;100.00;98599.59;5073592;28;20250;-55
2023/08/29 01:39:26;;;;;;;0.10;0.10;;;;;;;15.66;100.00;98587.94;5073639;28;20199;-55
2023/08/29 01:42:13;;;;;;;0.03;0.03;;;;;;;15.59;100.00;98583.28;5073060;28;20701;-55
2023/08/29 01:45:03;;;;;;;0.10;0.10;;;;;;;15.71;100.00;98592.81;5073379;28;20195;-54
2023/08/29 01:47:50;;;;;;;0.10;0.10;;;;;;;15.91;100.00;98605.13;5073541;28;20187;-55
2023/08/29 01:50:38;;;;;;;0.10;0.10;;;;;;;15.85;100.00;98599.53;5073434;28;20195;-55
2023/08/29 01:53:24;;;;;;;0.10;0.10;;;;;;;15.70;100.00;98599.16;5073171;28;20218;-54
2023/08/29 01:56:13;;;;;;;0.07;0.07;;;;;;;15.68;100.00;98596.63;5073259;28;20194;-55
2023/08/29 01:59:01;;;;;;;0.00;0.00;;;;;;;15.89;100.00;98587.56;5071875;28;20218;-55
2023/08/29 02:01:49;;;;;;;0.10;0.10;;;;;;;15.68;100.00;98579.78;5072360;28;20203;-55
2023/08/29 02:04:37;;;;;;;0.10;0.10;;;;;;;15.71;100.00;98574.13;5072177;28;20198;-55
2023/08/29 02:07:24;;;;;;;0.10;0.10;;;;;;;15.68;100.00;98567.25;5071995;28;20222;-54
2023/08/29 02:10:12;;;;;;;0.10;0.10;;;;;;;15.57;100.00;98556.72;5071812;28;20284;-55
2023/08/29 02:12:58;;;;;;;0.10;0.10;;;;;;;15.60;100.00;98553.78;5071655;28;20207;-55
2023/08/29 02:15:45;;;;;;;0.10;0.10;;;;;;;15.46;100.00;98547.06;5071880;28;20282;-55
2023/08/29 02:18:34;;;;;;;0.10;0.10;;;;;;;15.45;100.00;98558.72;5071600;28;20718;-55
2023/08/29 02:21:22;;;;;;;0.10;0.10;;;;;;;15.41;100.00;98568.00;5072800;28;20204;-55
2023/08/29 02:24:09;;;;;;;0.10;0.10;;;;;;;15.37;100.00;98574.59;5071754;28;20187;-54
2023/08/29 02:26:56;;;;;;;0.10;0.10;;;;;;;15.35;100.00;98567.75;5071666;28;20390;-55
2023/08/29 02:29:43;;;;;;;0.10;0.10;;;;;;;15.46;100.00;98573.75;5072856;28;20193;-54
2023/08/29 02:32:30;;;;;;;0.10;0.10;;;;;;;15.61;100.00;98557.28;5071563;28;20203;-55
2023/08/29 02:35:19;;;;;;;0.10;0.10;;;;;;;15.61;100.00;98554.63;5072858;28;20195;-55
2023/08/29 02:38:06;;;;;;;0.10;0.10;;;;;;;15.54;100.00;98551.69;5072367;28;20235;-54
2023/08/29 02:40:53;;;;;;;0.10;0.10;;;;;;;15.52;100.00;98536.78;5071273;28;20192;-54
2023/08/29 02:43:40;;;;;;;0.10;0.10;;;;;;;15.53;100.00;98533.13;5070261;28;20199;-55
2023/08/29 02:46:27;;;;;;;0.10;0.10;;;;;;;15.64;100.00;98527.66;5072591;28;20261;-55
2023/08/29 02:49:14;;;;;;;0.10;0.10;;;;;;;15.64;100.00;98527.66;5072437;28;20246;-55
2023/08/29 02:52:03;;;;;;;0.10;0.10;;;;;;;15.53;100.00;98522.44;5072372;28;20703;-55
2023/08/29 02:54:50;;;;;;;0.10;0.10;;;;;;;15.52;100.00;98526.09;5072432;28;20187;-55
2023/08/29 02:57:38;;;;;;;0.10;0.10;;;;;;;15.42;100.00;98524.28;5070051;28;20778;-54
2023/08/29 03:00:25;;;;;;;0.10;0.10;;;;;;;15.42;100.00;98518.97;5072523;28;20261;-55
2023/08/29 03:03:13;;;;;;;0.10;0.10;;;;;;;15.39;100.00;98516.59;5072382;28;20283;-55
2023/08/29 03:06:00;;;;;;;0.10;0.10;;;;;;;15.38;100.00;98516.75;5071272;28;20191;-55
2023/08/29 03:08:49;;;;;;;0.10;0.10;;;;;;;15.34;100.00;98521.50;5071375;28;20191;-55
2023/08/29 03:11:36;;;;;;;0.10;0.10;;;;;;;15.39;100.00;98515.75;5072344;28;20195;-54
2023/08/29 03:14:23;;;;;;;0.00;0.00;;;;;;;15.38;100.00;98512.25;5070324;28;20207;-54
2023/08/29 03:17:10;;;;;;;0.00;0.00;;;;;;;15.32;100.00;98511.97;5071344;28;20278;-55
2023/08/29 03:19:57;;;;;;;0.00;0.00;;;;;;;15.35;100.00;98506.38;5072014;28;20717;-54
2023/08/29 03:22:44;;;;;;;0.10;0.10;;;;;;;15.28;100.00;98499.91;5071128;28;20195;-54
2023/08/29 03:25:32;;;;;;;0.10;0.10;;;;;;;15.38;100.00;98500.72;5071329;28;20196;-54
2023/08/29 03:28:19;;;;;;;0.10;0.10;;;;;;;15.34;100.00;98497.47;5070825;28;20188;-55
2023/08/29 03:31:11;;;;;;;0.10;0.10;;;;;;;15.37;100.00;98491.88;5072045;28;20239;-55
2023/08/29 03:33:58;;;;;;;0.00;0.00;;;;;;;15.54;100.00;98506.31;5072061;28;20319;-55
2023/08/29 03:36:45;;;;;;;0.10;0.10;;;;;;;15.35;100.00;98498.34;5071955;28;20231;-54
2023/08/29 03:39:32;;;;;;;0.10;0.10;;;;;;;15.27;100.00;98501.75;5071772;28;20219;-55
2023/08/29 03:42:20;;;;;;;0.10;0.10;;;;;;;15.07;100.00;98502.75;5069653;28;20199;-55
2023/08/29 03:45:08;;;;;;;0.10;0.10;;;;;;;15.03;100.00;98496.00;5071953;28;20687;-55
2023/08/29 03:47:54;;;;;;;0.10;0.10;;;;;;;15.05;100.00;98504.72;5070842;28;20192;-54
2023/08/29 03:50:44;;;;;;;0.10;0.10;;;;;;;15.09;100.00;98506.13;5070612;28;20562;-55
2023/08/29 03:53:31;;;;;;;0.10;0.10;;;;;;;15.03;100.00;98510.19;5073744;28;20195;-55
2023/08/29 03:56:19;;;;;;;0.10;0.10;;;;;;;15.06;100.00;98501.09;5075175;28;20195;-55
2023/08/29 03:59:07;;;;;;;0.00;0.00;;;;;;;15.26;100.00;98507.22;5073334;28;20219;-55
2023/08/29 04:01:54;;;;;;;0.10;0.10;;;;;;;15.17;100.00;98507.09;5074731;28;20309;-55
2023/08/29 04:04:44;;;;;;;0.10;0.10;;;;;;;15.30;100.00;98509.44;5075213;28;20323;-55
2023/08/29 04:07:31;;;;;;;0.10;0.10;;;;;;;15.31;100.00;98503.13;5075473;28;20262;-55
2023/08/29 04:10:18;;;;;;;0.10;0.10;;;;;;;15.20;100.00;98503.28;5075388;28;20198;-55
2023/08/29 04:13:06;;;;;;;0.00;0.00;;;;;;;15.18;100.00;98503.44;5074009;28;20671;-55
2023/08/29 04:15:55;;;;;;;0.10;0.10;;;;;;;15.32;100.00;98504.81;5074579;28;20191;-55
2023/08/29 04:18:42;;;;;;;0.10;0.10;;;;;;;15.24;100.00;98504.66;5074412;28;20719;-55
2023/08/29 04:21:29;;;;;;;0.10;0.10;;;;;;;15.15;100.00;98502.88;5073961;28;20195;-55
2023/08/29 04:24:16;;;;;;;0.10;0.10;;;;;;;15.12;100.00;98504.00;5075041;28;20195;-54
2023/08/29 04:27:03;;;;;;;0.00;0.00;;;;;;;15.14;100.00;98503.84;5073979;28;20240;-55
2023/08/29 04:29:50;;;;;;;0.00;0.00;;;;;;;15.31;100.00;98504.94;5075137;28;20253;-55
2023/08/29 04:32:38;;;;;;;0.10;0.10;;;;;;;15.23;100.00;98511.00;5075090;28;20195;-55
2023/08/29 04:35:25;;;;;;;0.10;0.10;;;;;;;15.24;100.00;98503.84;5074866;28;20196;-55
2023/08/29 04:38:12;;;;;;;0.00;0.00;;;;;;;15.19;100.00;98504.28;5073401;28;20556;-55
2023/08/29 04:40:59;;;;;;;0.10;0.10;;;;;;;15.37;100.00;98501.72;5074896;28;20242;-55
2023/08/29 04:43:46;;;;;;;0.10;0.10;;;;;;;15.42;100.00;98500.28;5073524;28;20326;-55
2023/08/29 04:46:33;;;;;;;0.10;0.10;;;;;;;15.30;100.00;98495.28;5074604;28;20199;-55
2023/08/29 04:49:22;;;;;;;0.10;0.10;;;;;;;15.29;100.00;98496.25;5073573;28;20683;-55
2023/08/29 04:52:08;;;;;;;0.10;0.10;;;;;;;15.58;100.00;98496.16;5073487;28;20187;-55
2023/08/29 04:54:55;;;;;;;0.10;0.10;;;;;;;15.49;100.00;98505.03;5073263;28;20310;-55
2023/08/29 04:57:42;;;;;;;0.10;0.10;;;;;;;15.66;100.00;98501.66;5072246;28;20266;-54
2023/08/29 05:00:29;;;;;;;0.00;0.00;;;;;;;15.66;100.00;98498.97;5073305;28;20219;-55
2023/08/29 05:03:16;;;;;;;0.00;0.00;;;;;;;15.65;100.00;98489.28;5074143;28;20187;-55
2023/08/29 05:06:05;;;;;;;0.10;0.10;;;;;;;15.62;100.00;98495.75;5073512;28;20199;-55
2023/08/29 05:08:52;;;;;;;0.00;0.00;;;;;;;15.61;100.00;98495.91;5073398;28;20207;-55
2023/08/29 05:11:39;;;;;;;0.10;0.10;;;;;;;15.43;100.00;98493.94;5072723;28;20203;-55
2023/08/29 05:14:26;;;;;;;0.10;0.10;;;;;;;15.46;100.00;98503.53;5071900;28;20190;-55
2023/08/29 05:17:13;;;;;;;0.10;0.10;;;;;;;15.53;100.00;98499.25;5074019;28;20236;-55
2023/08/29 05:20:00;;;;;;;0.10;0.10;;;;;;;15.29;100.00;98498.94;5072784;28;20797;-55
2023/08/29 05:22:49;;;;;;;0.10;0.10;;;;;;;15.38;100.00;98506.91;5073865;28;20226;-55
2023/08/29 05:25:36;;;;;;;0.00;0.00;;;;;;;15.54;100.00;98506.31;5073789;28;20187;-55
2023/08/29 05:28:23;;;;;;;0.00;0.00;;;;;;;15.41;100.00;98501.25;5072316;28;20250;-55
2023/08/29 05:31:10;;;;;;;0.00;0.00;;;;;;;15.55;100.00;98505.31;5073815;28;20191;-54
2023/08/29 05:33:57;;;;;;;0.10;0.10;;;;;;;15.38;100.00;98506.06;5073698;28;20199;-55
2023/08/29 05:36:44;;;;;;;0.10;0.10;;;;;;;15.35;100.00;98501.88;5073487;28;20273;-55
2023/08/29 05:39:32;;;;;;;0.10;0.10;;;;;;;15.50;100.00;98502.22;5073358;28;20254;-55
2023/08/29 05:42:19;;;;;;;0.10;0.10;;;;;;;15.36;100.00;98514.22;5072436;28;20195;-54
2023/08/29 05:45:07;;;;;;;0.10;0.10;;;;;;;15.56;100.00;98508.81;5073361;28;20671;-55
2023/08/29 05:47:53;;;;;;;0.10;0.10;;;;;;;15.59;100.00;98503.19;5073233;28;20183;-54
2023/08/29 05:50:41;;;;;;;0.10;0.10;;;;;;;15.55;100.00;98508.00;5073216;28;20378;-55
2023/08/29 05:53:28;;;;;;;0.00;0.00;;;;;;;15.52;100.00;98502.06;5073330;28;20338;-55
2023/08/29 05:56:16;;;;;;;0.10;0.10;;;;;;;15.58;100.00;98501.50;5073359;28;20310;-55
2023/08/29 05:59:02;;;;;;;0.10;0.10;;;;;;;15.60;100.00;98499.53;5071840;28;20277;-54
2023/08/29 06:01:49;;;;;;;0.10;0.10;;;;;;;15.59;100.00;98498.69;5073116;28;20199;-55
2023/08/29 06:04:37;;;;;;;0.10;0.10;;;;;;;15.57;100.00;98497.16;5073137;28;20196;-55
2023/08/29 06:07:24;;;;;;;0.10;0.10;;;;;;;15.67;100.00;98501.50;5072942;28;20257;-55
2023/08/29 06:10:11;;;;;;;0.10;0.10;;;;;;;15.74;100.00;98493.75;5072980;28;20695;-55
2023/08/29 06:13:00;;;;;;;0.10;0.10;;;;;;;15.76;100.00;98493.59;5071719;28;20199;-55
2023/08/29 06:15:47;;;;;;;0.00;0.00;;;;;;;15.95;100.00;98490.84;5072817;28;20203;-55
2023/08/29 06:18:34;;;;;;;0.10;0.10;;;;;;;15.85;100.00;98490.88;5073045;28;20322;-55
2023/08/29 06:21:21;;;;;;;0.10;0.10;;;;;;;15.94;100.00;98491.84;5072606;28;20219;-55
2023/08/29 06:24:08;;;;;;;0.00;0.00;;;;;;;16.27;100.00;98483.19;5072888;28;20192;-55
2023/08/29 06:26:55;;;;;;;0.00;0.00;;;;;;;16.06;100.00;98484.47;5072650;28;20203;-55
2023/08/29 06:29:44;;;;;;;0.10;0.10;;;;;;;16.16;100.00;98494.09;5072750;28;20290;-55
2023/08/29 06:32:31;;;;;;;0.10;0.10;;;;;;;16.11;100.00;98499.03;5072732;28;20260;-55
2023/08/29 06:35:18;;;;;;;0.10;0.10;;;;;;;16.28;100.00;98497.38;5072766;28;20192;-55
2023/08/29 06:38:06;;;;;;;0.10;0.10;;;;;;;16.39;100.00;98491.81;5072338;28;20227;-55
2023/08/29 06:40:57;;;;;;;0.10;0.10;;;;;;;16.54;100.00;98484.97;5072372;28;20326;-55
2023/08/29 06:43:46;;;;;;;0.10;0.10;;;;;;;16.66;100.00;98487.41;5071498;28;20331;-55
2023/08/29 06:46:34;;;;;;;0.00;0.00;;;;;;;16.67;100.00;98489.09;5072854;28;20738;-55
2023/08/29 06:49:21;;;;;;;0.10;0.10;;;;;;;16.92;100.00;98488.34;5071530;28;20207;-55
2023/08/29 06:52:08;;;;;;;0.10;0.10;;;;;;;16.95;100.00;98482.69;5072499;28;20210;-55
2023/08/29 06:54:55;;;;;;;0.00;0.00;;;;;;;16.95;100.00;98480.00;5072550;28;20560;-55
2023/08/29 06:57:42;;;;;;;0.10;0.10;;;;;;;16.96;100.00;98487.03;5071221;28;20207;-55
2023/08/29 07:00:29;;;;;;;0.10;0.10;;;;;;;17.27;100.00;98486.59;5072172;28;20216;-55
2023/08/29 07:03:17;;;;;;;0.10;0.10;;;;;;;17.19;100.00;98476.69;5072573;28;20314;-55
2023/08/29 07:06:04;;;;;;;0.00;0.00;;;;;;;17.50;100.00;98477.03;5072456;28;20323;-55
2023/08/29 07:08:51;;;;;;;0.10;0.10;;;;;;;17.55;100.00;98482.75;5072325;28;20199;-55
2023/08/29 07:11:37;;;;;;;0.10;0.10;;;;;;;17.55;100.00;98480.06;5072375;28;20302;-55
2023/08/29 07:14:24;;;;;;;0.10;0.10;;;;;;;17.63;100.00;98479.28;5070086;28;20215;-55
2023/08/29 07:17:11;;;;;;;0.10;0.10;;;;;;;17.55;100.00;98488.09;5072420;28;20318;-55
2023/08/29 07:20:00;;;;;;;0.00;0.00;;;;;;;17.51;100.00;98481.41;5072493;28;20253;-55
2023/08/29 07:22:47;;;;;;;0.10;0.10;;;;;;;17.85;100.00;98483.25;5072142;28;20211;-55
2023/08/29 07:25:39;;;;;;;0.10;0.10;;;;;;;17.91;100.00;98483.47;5072205;28;20203;-55
2023/08/29 07:28:26;;;;;;;0.00;0.00;;;;;;;18.18;100.00;98484.25;5072636;28;20192;-55
2023/08/29 07:31:13;;;;;;;0.10;0.10;;;;;;;17.82;100.00;98478.22;5074808;28;20230;-55
2023/08/29 07:34:00;;;;;;;0.10;0.10;;;;;;;18.24;100.00;98484.44;5076241;28;20250;-55
2023/08/29 07:36:48;;;;;;;0.00;0.00;;;;;;;18.04;100.00;98483.00;5075971;28;20200;-55
2023/08/29 07:39:35;;;;;;;0.00;0.00;;;;;;;18.29;100.00;98484.75;5075825;28;20203;-55
2023/08/29 07:42:22;;;;;;;0.00;0.00;;;;;;;18.25;100.00;98493.31;5074918;28;20199;-55
2023/08/29 07:45:10;;;;;;;0.10;0.10;;;;;;;18.32;100.00;98491.63;5075817;28;20200;-55
2023/08/29 07:47:57;;;;;;;0.10;0.10;;;;;;;18.08;100.00;98502.28;5075548;28;20215;-55
2023/08/29 07:50:44;;;;;;;0.10;0.10;;;;;;;18.23;100.00;98496.13;5075766;28;20191;-55
2023/08/29 07:53:32;;;;;;;0.10;0.10;;;;;;;18.40;100.00;98505.06;5075442;28;20192;-55
2023/08/29 07:56:19;;;;;;;0.10;0.10;;;;;;;18.28;100.00;98506.38;5075290;28;20192;-55
2023/08/29 07:59:06;;;;;;;0.10;0.10;;;;;;;18.49;100.00;98517.50;5071627;28;20215;-55
2023/08/29 08:01:53;;;;;;;0.00;0.00;;;;;;;18.31;100.00;98514.94;5075372;28;20273;-55
2023/08/29 08:04:41;;;;;;;0.00;0.00;;;;;;;18.56;100.00;98523.06;5075227;28;20192;-55
2023/08/29 08:07:27;;;;;;;0.07;0.07;;;;;;;18.48;100.00;98523.03;5075496;28;20394;-55
2023/08/29 08:10:18;;;;;;;0.00;0.00;;;;;;;18.66;100.00;98530.97;5075242;28;20190;-55
2023/08/29 08:13:05;;;;;;;0.10;0.10;;;;;;;18.68;100.00;98534.34;5073853;28;20195;-55
2023/08/29 08:15:52;;;;;;;0.00;0.00;;;;;;;18.48;100.00;98529.22;5075577;28;20196;-55
2023/08/29 08:18:39;;;;;;;0.00;0.00;;;;;;;18.77;100.00;98538.72;5075339;28;20203;-55
2023/08/29 08:21:26;;;;;;;0.00;0.00;;;;;;;19.03;100.00;98538.56;5074757;28;20211;-55
2023/08/29 08:24:13;;;;;;;0.10;0.10;;;;;;;19.27;100.00;98530.50;5075039;28;20379;-55
2023/08/29 08:27:01;;;;;;;0.10;0.10;;;;;;;19.82;100.00;98531.63;5074991;28;20188;-55
2023/08/29 08:29:48;;;;;;;0.00;0.00;;;;;;;19.97;100.00;98536.09;5074550;28;20243;-56
2023/08/29 08:32:35;;;;;;;0.00;0.00;;;;;;;20.29;100.00;98539.69;5074890;28;20191;-56
2023/08/29 08:35:22;;;;;;;0.10;0.10;;;;;;;20.28;100.00;98543.41;5074908;28;20199;-56
2023/08/29 08:38:09;;;;;;;0.00;0.00;;;;;;;20.63;100.00;98542.06;5074517;28;20330;-55
2023/08/29 08:40:57;;;;;;;0.10;0.10;;;;;;;20.91;100.00;98536.16;5073475;28;20219;-56
2023/08/29 08:43:46;;;;;;;0.10;0.10;;;;;;;21.15;100.00;98538.69;5073558;28;20314;-56
2023/08/29 08:46:34;;;;;;;0.10;0.10;;;;;;;21.38;100.00;98535.97;5074562;28;20302;-56
2023/08/29 08:49:21;;;;;;;0.00;0.00;;;;;;;21.49;100.00;98537.41;5074343;28;20226;-56
2023/08/29 08:52:09;;;;;;;0.10;0.10;;;;;;;21.47;100.00;98536.75;5073560;28;20191;-56
2023/08/29 08:54:56;;;;;;;0.05;0.05;;;;;;;21.33;100.00;98538.41;5074437;28;20207;-56
2023/08/29 08:57:45;;;;;;;0.10;0.10;;;;;;;22.20;100.00;98531.44;5073295;28;20203;-56
2023/08/29 09:00:34;;;;;;;0.00;0.00;;;;;;;21.85;100.00;98532.16;5074366;28;20215;-56
2023/08/29 09:03:21;;;;;;;0.00;0.00;;;;;;;21.78;100.00;98536.59;5074385;28;20187;-56
2023/08/29 09:06:08;;;;;;;0.10;0.10;;;;;;;22.15;100.00;98543.78;5074423;28;20200;-55
2023/08/29 09:09:17;;;;;;;0.10;0.10;;;;;;;22.05;100.00;98545.91;5074242;28;20195;-56
2023/08/29 09:12:05;;;;;;;0.10;0.10;;;;;;;21.89;100.00;98542.34;5073553;28;20675;-56
2023/08/29 09:14:54;;;;;;;0.10;0.10;;;;;;;22.50;100.00;98544.88;5074234;28;20281;-56
2023/08/29 09:17:47;;;;;;;0.10;0.10;;;;;;;22.43;100.00;98544.78;5073844;28;20199;-56
2023/08/29 09:20:34;;;;;;;0.10;0.10;;;;;;;22.46;100.00;98539.00;5074193;28;20544;-56
2023/08/29 09:23:21;;;;;;;0.10;0.10;;;;;;;22.74;100.00;98549.09;5074161;28;20219;-56
2023/08/29 09:26:12;;;;;;;0.10;0.10;;;;;;;22.60;100.00;98548.09;5073730;28;20191;-56
2023/08/29 09:28:59;;;;;;;0.00;0.00;;;;;;;23.00;100.00;98551.28;5072505;28;20199;-55
2023/08/29 09:31:46;;;;;;;0.10;0.10;;;;;;;23.27;100.00;98544.25;5073777;28;20274;-55
2023/08/29 09:34:34;;;;;;;0.00;0.00;;;;;;;23.45;100.00;98541.06;5073697;28;20200;-56
2023/08/29 09:37:21;;;;;;;0.00;0.00;;;;;;;23.38;100.00;98543.72;5072546;28;20223;-56
2023/08/29 09:40:10;;;;;;;0.10;0.10;;;;;;;23.59;94.67;98546.41;5073584;28;20195;-56
2023/08/29 09:43:18;;;;;;;0.10;0.10;;;;;;;24.06;87.49;98552.16;5071969;28;20198;-56
2023/08/29 09:46:04;;;;;;;0.10;0.10;;;;;;;24.79;80.44;98542.47;5073409;28;20192;-56
2023/08/29 09:48:56;;;;;;;0.10;0.10;;;;;;;25.22;80.59;98543.03;5073135;28;20199;-56
2023/08/29 09:51:44;;;;;;;0.10;0.10;;;;;;;24.98;78.28;98543.56;5073128;28;20779;-56
2023/08/29 09:54:33;;;;;;;0.10;0.10;;;;;;;24.80;78.69;98536.03;5073583;28;20774;-56
2023/08/29 09:57:24;;;;;;;0.05;0.05;;;;;;;25.51;77.25;98540.94;5071854;28;20318;-56
2023/08/29 10:00:13;;;;;;;0.10;0.10;;;;;;;25.86;70.72;98536.97;5073524;28;20199;-56
2023/08/29 10:03:05;;;;;;;0.00;0.00;;;;;;;26.19;64.65;98523.31;5072880;28;20293;-56
2023/08/29 10:05:56;;;;;;;0.00;0.00;;;;;;;26.43;61.85;98520.94;5072940;28;20323;-56
2023/08/29 10:08:52;;;;;;;0.00;0.00;;;;;;;26.35;62.53;98511.16;5073088;28;20211;-56
2023/08/29 10:11:39;;;;;;;0.10;0.10;;;;;;;25.57;64.41;98505.66;5072944;28;20259;-56
2023/08/29 10:14:42;;;;;;;0.03;0.03;;;;;;;24.30;70.94;98524.56;5073037;28;20191;-56
2023/08/29 10:17:31;;;;;;;0.10;0.10;;;;;;;24.52;69.43;98517.22;5073065;28;20204;-56
2023/08/29 10:20:20;;;;;;;0.00;0.00;;;;;;;24.57;67.94;98512.00;5072696;28;20215;-56
2023/08/29 10:23:08;;;;;;;0.10;0.10;;;;;;;24.78;70.14;98505.59;5072613;28;20223;-56
2023/08/29 10:26:00;;;;;;;0.00;0.00;;;;;;;24.45;72.24;98510.94;5072944;28;20277;-56
2023/08/29 10:28:48;;;;;;;0.10;0.10;;;;;;;24.84;69.38;98510.19;5071421;28;20684;-55
2023/08/29 10:31:36;;;;;;;0.00;0.00;;;;;;;25.37;68.85;98508.38;5072899;28;20198;-56
2023/08/29 10:34:24;;;;;;;0.00;0.00;;;;;;;24.70;66.80;98508.50;5072765;28;20195;-56
2023/08/29 10:37:17;;;;;;;0.00;0.00;;;;;;;24.87;66.57;98503.53;5072399;28;20282;-56
2023/08/29 10:40:12;;;;;;;0.00;0.00;;;;;;;24.13;69.80;98517.84;5072715;28;20191;-55
2023/08/29 10:43:01;;;;;;;0.00;0.00;;;;;;;23.76;74.14;98508.28;5071240;28;20211;-56
2023/08/29 10:45:49;;;;;;;0.10;0.10;;;;;;;24.85;65.12;98506.44;5072545;28;20200;-56
2023/08/29 10:48:55;;;;;;;0.00;0.00;;;;;;;26.09;62.04;98506.66;5072628;28;20191;-56
2023/08/29 10:51:45;;;;;;;0.00;0.00;;;;;;;25.87;63.08;98502.53;5072363;28;20199;-56
2023/08/29 10:54:31;;;;;;;0.00;0.00;;;;;;;25.04;68.89;98502.13;5072612;28;20199;-56
2023/08/29 10:57:28;;;;;;;0.00;0.00;;;;;;;25.66;64.32;98493.53;5071187;28;20238;-56
2023/08/29 11:00:20;;;;;;;0.00;0.00;;;;;;;26.90;55.68;98494.34;5072486;28;20194;-56
2023/08/29 11:03:06;;;;;;;0.00;0.00;;;;;;;26.57;54.98;98489.97;5071510;28;20223;-56
2023/08/29 11:05:57;;;;;;;0.00;0.00;;;;;;;26.55;54.03;98497.50;5072442;28;20199;-56
2023/08/29 11:08:44;;;;;;;0.10;0.10;;;;;;;25.57;58.27;98491.28;5072345;28;20245;-56
2023/08/29 11:11:31;;;;;;;0.00;0.00;;;;;;;25.62;62.54;98480.63;5072410;28;20673;-56
2023/08/29 11:14:18;;;;;;;0.00;0.00;;;;;;;26.50;62.60;98476.41;5070929;28;20199;-56
2023/08/29 11:17:22;;;;;;;0.00;0.00;;;;;;;29.59;51.15;98479.69;5072246;28;20195;-56
2023/08/29 11:20:13;;;;;;;0.00;0.00;;;;;;;31.78;41.86;98479.31;5072312;28;20214;-56
2023/08/29 11:23:01;;;;;;;0.00;0.00;;;;;;;32.57;39.58;98478.13;5071559;28;20220;-56
2023/08/29 11:25:50;;;;;;;0.00;0.00;;;;;;;32.45;38.27;98478.28;5071942;28;20261;-57
2023/08/29 11:28:42;;;;;;;0.00;0.00;;;;;;;30.29;41.44;98479.59;5070961;28;20698;-56
2023/08/29 11:31:31;;;;;;;0.00;0.00;;;;;;;29.06;44.70;98470.47;5072186;28;20326;-57
2023/08/29 11:34:20;;;;;;;0.00;0.00;;;;;;;28.43;48.62;98470.94;5072172;28;20195;-56
2023/08/29 11:37:09;;;;;;;0.00;0.00;;;;;;;26.17;55.76;98462.97;5071634;28;20220;-56
2023/08/29 11:39:58;;;;;;;0.00;0.00;;;;;;;29.71;46.36;98457.84;5072266;28;20207;-56
2023/08/29 11:42:46;;;;;;;0.00;0.00;;;;;;;32.33;40.60;98461.97;5070762;28;20210;-56
2023/08/29 11:45:54;;;;;;;0.00;0.00;;;;;;;33.68;37.64;98464.59;5072169;28;20183;-57
2023/08/29 11:48:45;;;;;;;0.00;0.00;;;;;;;36.33;31.39;98462.25;5072270;28;20459;-57
2023/08/29 11:51:34;;;;;;;0.00;0.00;;;;;;;38.16;28.65;98451.69;5072193;28;20204;-57
2023/08/29 11:54:41;;;;;;;0.00;0.00;;;;;;;36.58;29.74;98455.81;5072118;28;20236;-57
2023/08/29 11:57:29;;;;;;;0.00;0.00;;;;;;;33.13;34.18;98454.84;5070902;28;20211;-57
2023/08/29 12:00:17;;;;;;;0.00;0.00;;;;;;;33.29;34.57;98456.59;5072011;28;20639;-57
2023/08/29 12:03:04;;;;;;;0.00;0.00;;;;;;;31.89;36.81;98452.88;5071905;28;20219;-57
2023/08/29 12:05:51;;;;;;;0.00;0.00;;;;;;;31.90;37.52;98449.88;5072118;28;20202;-56
2023/08/29 12:08:41;;;;;;;0.00;0.00;;;;;;;31.36;38.54;98448.78;5071984;28;20235;-57
2023/08/29 12:11:41;;;;;;;0.00;0.00;;;;;;;31.54;36.96;98447.69;5071010;28;20192;-57
2023/08/29 12:14:28;;;;;;;0.00;0.00;;;;;;;30.57;38.83;98450.63;5073680;28;20191;-57
2023/08/29 12:17:16;;;;;;;0.00;0.00;;;;;;;29.11;41.33;98449.84;5075309;28;20203;-56
2023/08/29 12:20:03;;;;;;;0.00;0.00;;;;;;;27.61;45.19;98455.94;5075456;28;20272;-56
2023/08/29 12:22:52;;;;;;;0.00;0.00;;;;;;;26.68;51.13;98459.38;5075278;28;20215;-56
2023/08/29 12:25:40;;;;;;;0.00;0.00;;;;;;;25.46;54.34;98460.19;5075347;28;20269;-56
2023/08/29 12:28:27;;;;;;;0.00;0.00;;;;;;;24.99;59.21;98459.34;5073804;28;20263;-55
2023/08/29 12:31:14;;;;;;;0.00;0.00;;;;;;;24.17;63.66;98459.56;5075238;28;20230;-56
2023/08/29 12:34:00;;;;;;;0.08;0.08;;;;;;;23.51;71.14;98454.59;5075053;28;20192;-55
2023/08/29 12:36:47;;;;;;;0.10;0.10;;;;;;;23.37;74.89;98461.81;5075231;28;20211;-55
2023/08/29 12:39:34;;;;;;;0.10;0.10;;;;;;;23.14;78.60;98462.03;5035216;28;20312;-55
2023/08/29 12:42:23;;;;;;;0.10;0.10;;;;;;;23.01;83.59;98461.09;5033632;28;20200;-55
2023/08/29 12:45:10;;;;;;;0.10;0.10;;;;;;;23.06;84.67;98461.31;5035035;28;20197;-55
2023/08/29 12:47:57;;;;;;;0.10;0.10;;;;;;;23.05;82.85;98463.19;5034982;28;20189;-55
2023/08/29 12:50:44;;;;;;;0.00;0.00;;;;;;;23.14;83.49;98455.78;5034897;28;20291;-55
2023/08/29 12:53:31;;;;;;;0.10;0.10;;;;;;;23.11;81.90;98459.72;5034808;28;20260;-55
2023/08/29 12:56:18;;;;;;;0.10;0.10;;;;;;;23.26;78.66;98453.38;5034729;28;20200;-56
2023/08/29 12:59:07;;;;;;;0.10;0.10;;;;;;;23.61;73.04;98455.13;5033504;28;20732;-55
2023/08/29 13:01:54;;;;;;;0.10;0.10;;;;;;;23.36;76.19;98454.72;5034872;28;20709;-55
2023/08/29 13:04:41;;;;;;;0.10;0.10;;;;;;;23.52;75.75;98450.88;5034503;28;20291;-55